Huvudsida
METAR-TAF:

METAR-TAF

Flygplatser :

Sankt Michel, Finland

Sankt Michels flygplats

latitud: 61-44N, longitud: 027-18E, höjd: 138 m

Aktuellt väderrapport

Denna rapport gjordes för 31 minuter sedan, klockan 02:50 UTC
Vind 2 kt från ost/nordost
Temperatur -9°C
Fuktighet 92%
Tryck 1001 hPa
Sikt 10 km eller mer
Få moln på en höjd av 1400 ft
Brutna moln på en höjd av 2500 ft
Mulet på en höjd av 4500 ft
lätt snö

METAR: EFMI 190250Z AUTO 07002KT 9999 -SN FEW014 BKN025 OVC045 M09/M10 Q1001

Tid: 05:21 (03:21 UTC)


TAF: saknas

Aktuella väderrapporter och prognoser från 4000 flygplatser (METAR- och TAF-rapporter).

De tillgängliga stationerna syns som gula och röda prickar på kartan.

För musen över prickarna för att se namnen på stationerna.

Klicka sedan för att få väderrapporter och prognoser.

För att ändra kartan: Klicka på de gröna knapparna med ett svart kors på för att zooma in; den gröna knappen med ett streck på för att zooma ut; eller på de gröna pilarna för angränsande kartor.


METAR-TAF: